Swift Ace — C6XB8 — position and weather

sailwx.info

Track history (hours):
 
Tides and Currents Weather Stations Pressure Air Temp Water Temp Dewpoint Dewpoint Depression Visibility Wind Speed Wind Dir Waves Ship Positions

Swift Ace

Last reported at 2017-Feb-14 22:13 UTC. Time now 2017-Feb-22 08:31 UTC.
Position N 02°01' E 102°09'.

Length 200 m; draft 8.6 m.

Type: Cargo ship. MMSI: 310968322.

Date/timePositionNaut miles runAvg speedWind from/ knotsBaromVisibWave heightAir tempDewpointWater temp
2017-Feb-14 22:13N 02°01' E 102°09'1116.4
2017-Feb-14 21:33N 01°55' E 102°18'1716.9
2017-Feb-14 20:33N 01°49' E 102°34'4715.7
2017-Feb-14 17:33N 01°24' E 103°14'1414.3
2017-Feb-14 16:33N 01°15' E 103°25'1615.6
2017-Feb-14 15:33N 01°11' E 103°40'1313.1
2017-Feb-14 14:33N 01°14' E 103°52'2 1.8
2017-Feb-14 13:31N 01°15' E 103°52'0 0.1
2017-Feb-14 12:28N 01°15' E 103°52'0 0.1
2017-Feb-14 11:25N 01°15' E 103°52'0 0.1
2017-Feb-14 10:28N 01°15' E 103°52'0 0.1
2017-Feb-14 09:28N 01°15' E 103°52'0 0.0
2017-Feb-14 08:31N 01°15' E 103°52'0 0.1
2017-Feb-14 07:25N 01°15' E 103°52'0 0.1
2017-Feb-14 06:22N 01°15' E 103°52'3 3.4
2017-Feb-14 05:34N 01°13' E 103°52'8 8.0
2017-Feb-14 04:34N 01°17' E 103°45'1 0.7
2017-Feb-14 03:33N 01°17' E 103°45'0 0.0
2017-Feb-14 02:33N 01°17' E 103°45'0 0.0
2017-Feb-14 01:33N 01°17' E 103°45'0 0.0
2017-Feb-14 00:33N 01°17' E 103°45'0 0.0
2017-Feb-13 23:33N 01°17' E 103°45'1 0.8
2017-Feb-13 22:33N 01°16' E 103°45'7 7.0
2017-Feb-13 21:33N 01°12' E 103°40'8 7.7
2017-Feb-13 20:33N 01°10' E 103°32'1211.1
2017-Feb-13 19:28N 01°15' E 103°21'5413.1
2017-Feb-13 15:21N 01°43' E 102°35'1113.4
2017-Feb-13 14:33N 01°47' E 102°25'  
Track history (hours):
 
Tides and Currents Weather Stations Pressure Air Temp Water Temp Dewpoint Dewpoint Depression Visibility Wind Speed Wind Dir Waves Ship Positions

Swift Ace

Last reported at 2017-Feb-14 22:13 UTC. Time now 2017-Feb-22 08:31 UTC.
Position N 02°01' E 102°09'.

Length 200 m; draft 8.6 m.

Type: Cargo ship. MMSI: 310968322.

Date/timePositionNaut miles runAvg speedWind from/ knotsBaromVisibWave heightAir tempDewpointWater temp
2017-Feb-14 22:13N 02°01' E 102°09'1116.4
2017-Feb-14 21:33N 01°55' E 102°18'1716.9
2017-Feb-14 20:33N 01°49' E 102°34'4715.7
2017-Feb-14 17:33N 01°24' E 103°14'1414.3
2017-Feb-14 16:33N 01°15' E 103°25'1615.6
2017-Feb-14 15:33N 01°11' E 103°40'1313.1
2017-Feb-14 14:33N 01°14' E 103°52'2 1.8
2017-Feb-14 13:31N 01°15' E 103°52'0 0.1
2017-Feb-14 12:28N 01°15' E 103°52'0 0.1
2017-Feb-14 11:25N 01°15' E 103°52'0 0.1
2017-Feb-14 10:28N 01°15' E 103°52'0 0.1
2017-Feb-14 09:28N 01°15' E 103°52'0 0.0
2017-Feb-14 08:31N 01°15' E 103°52'0 0.1
2017-Feb-14 07:25N 01°15' E 103°52'0 0.1
2017-Feb-14 06:22N 01°15' E 103°52'3 3.4
2017-Feb-14 05:34N 01°13' E 103°52'8 8.0
2017-Feb-14 04:34N 01°17' E 103°45'1 0.7
2017-Feb-14 03:33N 01°17' E 103°45'0 0.0
2017-Feb-14 02:33N 01°17' E 103°45'0 0.0
2017-Feb-14 01:33N 01°17' E 103°45'0 0.0
2017-Feb-14 00:33N 01°17' E 103°45'0 0.0
2017-Feb-13 23:33N 01°17' E 103°45'1 0.8
2017-Feb-13 22:33N 01°16' E 103°45'7 7.0
2017-Feb-13 21:33N 01°12' E 103°40'8 7.7
2017-Feb-13 20:33N 01°10' E 103°32'1211.1
2017-Feb-13 19:28N 01°15' E 103°21'5413.1
2017-Feb-13 15:21N 01°43' E 102°35'1113.4
2017-Feb-13 14:33N 01°47' E 102°25'  

Dump ship's entire track history